Time;durP1;ratioP1;P1;durP2;ratioP2;P2;SDS_P1;SDS_P2;PMS_P1;PMS_P2;Temp;Humidity;BMP_temperature;BMP_pressure;BME280_temperature;BME280_humidity;BME280_pressure;Samples;Min_cycle;Max_cycle;Signal;HPM_P1;HPM_P2
2023/11/04 00:00:53;;;;;;;;;;;;;;;;;;5006996;28;89171;-69
2023/11/04 00:03:19;;;;;;;;;;;;;;;;;;5007809;28;89456;-68
2023/11/04 00:05:45;;;;;;;;;;;;;;;;;;5007534;28;89607;-69
2023/11/04 00:08:11;;;;;;;;;;;;;;;;;;5007841;28;90241;-69
2023/11/04 00:10:36;;;;;;;;;;;;;;;;;;5010397;28;89065;-69
2023/11/04 00:13:02;;;;;;;;;;;;;;;;;;5006675;28;89578;-66
2023/11/04 00:15:28;;;;;;;;;;;;;;;;;;5007558;28;90447;-67
2023/11/04 00:17:54;;;;;;;;;;;;;;;;;;5004517;28;89519;-71
2023/11/04 00:20:19;;;;;;;;;;;;;;;;;;5007073;28;90192;-68
2023/11/04 00:22:44;;;;;;;;;;;;;;;;;;5007520;28;88978;-72
2023/11/04 00:25:10;;;;;;;;;;;;;;;;;;5007113;28;89404;-69
2023/11/04 00:27:36;;;;;;;;;;;;;;;;;;5008081;28;89655;-67
2023/11/04 00:30:02;;;;;;;;;;;;;;;;;;5008836;28;89175;-69
2023/11/04 00:32:27;;;;;;;;;;;;;;;;;;5009860;28;90980;-68
2023/11/04 00:34:52;;;;;;;;;;;;;;;;;;5007867;28;90058;-69
2023/11/04 00:37:18;;;;;;;;;;;;;;;;;;5004184;28;89750;-67
2023/11/04 00:39:43;;;;;;;;;;;;;;;;;;5006728;28;89522;-67
2023/11/04 00:42:08;;;;;;;;;;;;;;;;;;5009081;28;89339;-70
2023/11/04 00:44:33;;;;;;;;;;;;;;;;;;5007246;28;90640;-67
2023/11/04 00:46:59;;;;;;;;;;;;;;;;;;5007960;28;89666;-70
2023/11/04 00:49:24;;;;;;;;;;;;;;;;;;5009431;28;89351;-71
2023/11/04 00:51:49;;;;;;;;;;;;;;;;;;5004878;28;90170;-71
2023/11/04 00:54:15;;;;;;;;;;;;;;;;;;5004267;28;89031;-71
2023/11/04 00:56:40;;;;;;;;;;;;;;;;;;5005840;28;90792;-71
2023/11/04 00:59:05;;;;;;;;;;;;;;;;;;5000415;28;90187;-67
2023/11/04 01:01:31;;;;;;;;;;;;;;;;;;5003882;28;89437;-68
2023/11/04 01:03:56;;;;;;;;;;;;;;;;;;4998138;28;93066;-71
2023/11/04 01:06:21;;;;;;;;;;;;;;;;;;5002527;28;89159;-71
2023/11/04 01:08:46;;;;;;;;;;;;;;;;;;5003188;28;89107;-71
2023/11/04 01:11:12;;;;;;;;;;;;;;;;;;5009301;28;89893;-69
2023/11/04 01:13:37;;;;;;;;;;;;;;;;;;5000473;28;89539;-71
2023/11/04 01:16:02;;;;;;;;;;;;;;;;;;5005947;28;89648;-67
2023/11/04 01:18:28;;;;;;;;;;;;;;;;;;5037131;27;90360;-71
2023/11/04 01:20:53;;;;;;;;;;;;;;;;;;5001392;28;89204;-67
2023/11/04 01:23:18;;;;;;;;;;;;;;;;;;5002156;28;90015;-67
2023/11/04 01:25:43;;;;;;;;;;;;;;;;;;5001721;28;90934;-67
2023/11/04 01:28:08;;;;;;;;;;;;;;;;;;5002452;28;89696;-68
2023/11/04 01:30:34;;;;;;;;;;;;;;;;;;4998645;28;90031;-67
2023/11/04 01:33:00;;;;;;;;;;;;;;;;;;5001321;28;90088;-70
2023/11/04 01:35:25;;;;;;;;;;;;;;;;;;4997534;28;90176;-69
2023/11/04 01:37:50;;;;;;;;;;;;;;;;;;5037205;27;90260;-70
2023/11/04 01:40:15;;;;;;;;;;;;;;;;;;4995605;28;89083;-67
2023/11/04 01:42:41;;;;;;;;;;;;;;;;;;5029965;27;90782;-67
2023/11/04 01:45:09;;;;;;;;;;;;;;;;;;5004813;28;89653;-67
2023/11/04 01:47:34;;;;;;;;;;;;;;;;;;5000241;28;89871;-67
2023/11/04 01:50:00;;;;;;;;;;;;;;;;;;4993285;28;90968;-71
2023/11/04 01:52:25;;;;;;;;;;;;;;;;;;4999836;28;90657;-68
2023/11/04 01:54:51;;;;;;;;;;;;;;;;;;4999775;28;90564;-68
2023/11/04 01:57:16;;;;;;;;;;;;;;;;;;4999837;28;89830;-69
2023/11/04 01:59:42;;;;;;;;;;;;;;;;;;4996647;28;89064;-70
2023/11/04 02:02:11;;;;;;;;;;;;;;;;;;5003932;28;89314;-69
2023/11/04 02:04:36;;;;;;;;;;;;;;;;;;5000000;28;89629;-68
2023/11/04 02:07:01;;;;;;;;;;;;;;;;;;4998554;28;89402;-71
2023/11/04 02:09:27;;;;;;;;;;;;;;;;;;5005056;28;89831;-71
2023/11/04 02:11:53;;;;;;;;;;;;;;;;;;5001070;28;90786;-68
2023/11/04 02:14:18;;;;;;;;;;;;;;;;;;5000100;28;89092;-68
2023/11/04 02:16:43;;;;;;;;;;;;;;;;;;5006243;28;89490;-66
2023/11/04 02:19:09;;;;;;;;;;;;;;;;;;5005813;28;89464;-66
2023/11/04 02:21:34;;;;;;;;;;;;;;;;;;5010712;28;90466;-66
2023/11/04 02:23:59;;;;;;;;;;;;;;;;;;5010183;28;89480;-67
2023/11/04 02:26:25;;;;;;;;;;;;;;;;;;5011772;28;89126;-71
2023/11/04 02:28:50;;;;;;;;;;;;;;;;;;5012483;28;90127;-70
2023/11/04 02:31:15;;;;;;;;;;;;;;;;;;5012810;28;89422;-71
2023/11/04 02:33:41;;;;;;;;;;;;;;;;;;5027803;28;90404;-69
2023/11/04 02:36:06;;;;;;;;;;;;;;;;;;5011579;28;90577;-70
2023/11/04 02:38:31;;;;;;;;;;;;;;;;;;5012650;28;90102;-70
2023/11/04 02:40:57;;;;;;;;;;;;;;;;;;5030722;28;89811;-69
2023/11/04 02:43:22;;;;;;;;;;;;;;;;;;5012917;28;90097;-71
2023/11/04 02:45:48;;;;;;;;;;;;;;;;;;5014125;28;89703;-71
2023/11/04 02:48:13;;;;;;;;;;;;;;;;;;5010808;28;89861;-67
2023/11/04 02:50:38;;;;;;;;;;;;;;;;;;5010028;28;89428;-66
2023/11/04 02:53:03;;;;;;;;;;;;;;;;;;5009742;28;89054;-67
2023/11/04 02:55:29;;;;;;;;;;;;;;;;;;5009910;28;89507;-72
2023/11/04 02:57:54;;;;;;;;;;;;;;;;;;5014539;28;89324;-72
2023/11/04 03:00:19;;;;;;;;;;;;;;;;;;5013382;28;89037;-68
2023/11/04 03:02:44;;;;;;;;;;;;;;;;;;5012092;28;89710;-71
2023/11/04 03:05:10;;;;;;;;;;;;;;;;;;5000280;28;89742;-71
2023/11/04 03:07:35;;;;;;;;;;;;;;;;;;5027048;27;90816;-68
2023/11/04 03:10:02;;;;;;;;;;;;;;;;;;4998236;28;89531;-69
2023/11/04 03:12:27;;;;;;;;;;;;;;;;;;5003392;28;89832;-67
2023/11/04 03:14:53;;;;;;;;;;;;;;;;;;5002150;28;90047;-70
2023/11/04 03:17:18;;;;;;;;;;;;;;;;;;5001154;28;90268;-71
2023/11/04 03:19:46;;;;;;;;;;;;;;;;;;4996587;28;90092;-70
2023/11/04 03:22:12;;;;;;;;;;;;;;;;;;4996612;28;89640;-72
2023/11/04 03:24:41;;;;;;;;;;;;;;;;;;5000317;28;89702;-72
2023/11/04 03:27:07;;;;;;;;;;;;;;;;;;4996278;28;90590;-70
2023/11/04 03:29:32;;;;;;;;;;;;;;;;;;5002567;28;90404;-66
2023/11/04 03:31:57;;;;;;;;;;;;;;;;;;5006882;28;89016;-69
2023/11/04 03:34:23;;;;;;;;;;;;;;;;;;5014024;28;91780;-71
2023/11/04 03:36:48;;;;;;;;;;;;;;;;;;5003819;28;89530;-67
2023/11/04 03:39:13;;;;;;;;;;;;;;;;;;5006791;28;89461;-71
2023/11/04 03:41:39;;;;;;;;;;;;;;;;;;5005152;28;89228;-71
2023/11/04 03:44:04;;;;;;;;;;;;;;;;;;5007527;28;89823;-71
2023/11/04 03:46:30;;;;;;;;;;;;;;;;;;5005110;28;89057;-71
2023/11/04 03:48:55;;;;;;;;;;;;;;;;;;5002684;28;90562;-71
2023/11/04 03:51:21;;;;;;;;;;;;;;;;;;5005701;28;90203;-68
2023/11/04 03:53:46;;;;;;;;;;;;;;;;;;5006755;28;89868;-72
2023/11/04 03:56:11;;;;;;;;;;;;;;;;;;5001764;28;89927;-72
2023/11/04 03:58:37;;;;;;;;;;;;;;;;;;5002508;28;89312;-72
2023/11/04 04:01:03;;;;;;;;;;;;;;;;;;5002745;28;90491;-72
2023/11/04 04:03:28;;;;;;;;;;;;;;;;;;5006998;28;90255;-70
2023/11/04 04:05:53;;;;;;;;;;;;;;;;;;5006075;28;89325;-71
2023/11/04 04:08:18;;;;;;;;;;;;;;;;;;5005531;28;89659;-72
2023/11/04 04:10:44;;;;;;;;;;;;;;;;;;5006630;28;89587;-71
2023/11/04 04:13:09;;;;;;;;;;;;;;;;;;5000837;28;90632;-68
2023/11/04 04:15:34;;;;;;;;;;;;;;;;;;5000891;28;90982;-70
2023/11/04 04:18:00;;;;;;;;;;;;;;;;;;5003386;28;89367;-70
2023/11/04 04:20:26;;;;;;;;;;;;;;;;;;4999362;28;92086;-70
2023/11/04 04:22:51;;;;;;;;;;;;;;;;;;5004111;28;89449;-70
2023/11/04 04:25:16;;;;;;;;;;;;;;;;;;5001690;28;89637;-70
2023/11/04 04:27:41;;;;;;;;;;;;;;;;;;5005318;28;89522;-70
2023/11/04 04:30:07;;;;;;;;;;;;;;;;;;5001677;28;89349;-69
2023/11/04 04:32:33;;;;;;;;;;;;;;;;;;5008710;28;90994;-67
2023/11/04 04:34:58;;;;;;;;;;;;;;;;;;5004896;28;89727;-69
2023/11/04 04:37:23;;;;;;;;;;;;;;;;;;5009537;28;89950;-70
2023/11/04 04:39:49;;;;;;;;;;;;;;;;;;5009176;28;90969;-69
2023/11/04 04:42:15;;;;;;;;;;;;;;;;;;5009242;28;89603;-70
2023/11/04 04:44:40;;;;;;;;;;;;;;;;;;5005541;28;90398;-70
2023/11/04 04:47:05;;;;;;;;;;;;;;;;;;5004794;28;90027;-70
2023/11/04 04:49:30;;;;;;;;;;;;;;;;;;5008015;28;89240;-70
2023/11/04 04:51:56;;;;;;;;;;;;;;;;;;5004658;28;90119;-70
2023/11/04 04:54:21;;;;;;;;;;;;;;;;;;5037499;27;90416;-70
2023/11/04 04:56:46;;;;;;;;;;;;;;;;;;5005023;28;89818;-70
2023/11/04 04:59:12;;;;;;;;;;;;;;;;;;5004191;28;90009;-71
2023/11/04 05:01:37;;;;;;;;;;;;;;;;;;5003624;28;89515;-71
2023/11/04 05:04:03;;;;;;;;;;;;;;;;;;5001006;28;89981;-71
2023/11/04 05:06:28;;;;;;;;;;;;;;;;;;5004949;28;89361;-72
2023/11/04 05:08:55;;;;;;;;;;;;;;;;;;5003460;28;90750;-71
2023/11/04 05:11:20;;;;;;;;;;;;;;;;;;5006272;28;90650;-71
2023/11/04 05:13:46;;;;;;;;;;;;;;;;;;5002311;28;89572;-70
2023/11/04 05:16:11;;;;;;;;;;;;;;;;;;5003384;28;89365;-71
2023/11/04 05:18:36;;;;;;;;;;;;;;;;;;5038275;27;90674;-70
2023/11/04 05:21:02;;;;;;;;;;;;;;;;;;5003824;28;89597;-71
2023/11/04 05:23:28;;;;;;;;;;;;;;;;;;5003871;28;89734;-72
2023/11/04 05:25:53;;;;;;;;;;;;;;;;;;5003521;28;89751;-69
2023/11/04 05:28:18;;;;;;;;;;;;;;;;;;5035015;27;92258;-71
2023/11/04 05:30:43;;;;;;;;;;;;;;;;;;5004222;28;90593;-71
2023/11/04 05:33:09;;;;;;;;;;;;;;;;;;5009055;28;89899;-70
2023/11/04 05:35:35;;;;;;;;;;;;;;;;;;5005264;28;88991;-69
2023/11/04 05:38:00;;;;;;;;;;;;;;;;;;5004341;28;90833;-67
2023/11/04 05:40:26;;;;;;;;;;;;;;;;;;5001404;28;90694;-68
2023/11/04 05:42:51;;;;;;;;;;;;;;;;;;5004008;28;89702;-71
2023/11/04 05:45:16;;;;;;;;;;;;;;;;;;5003543;28;90182;-68
2023/11/04 05:47:44;;;;;;;;;;;;;;;;;;5005321;28;89684;-71
2023/11/04 05:50:09;;;;;;;;;;;;;;;;;;5002061;28;89702;-71
2023/11/04 05:52:35;;;;;;;;;;;;;;;;;;5009706;28;90384;-71
2023/11/04 05:55:00;;;;;;;;;;;;;;;;;;5003933;28;90936;-71
2023/11/04 05:57:25;;;;;;;;;;;;;;;;;;5003315;28;89748;-68
2023/11/04 05:59:50;;;;;;;;;;;;;;;;;;5007765;28;89726;-70
2023/11/04 06:02:16;;;;;;;;;;;;;;;;;;5006973;28;89516;-71
2023/11/04 06:04:41;;;;;;;;;;;;;;;;;;5008205;28;90020;-71
2023/11/04 06:07:08;;;;;;;;;;;;;;;;;;5004991;28;89560;-71
2023/11/04 06:09:33;;;;;;;;;;;;;;;;;;5009885;28;89094;-67
2023/11/04 06:12:02;;;;;;;;;;;;;;;;;;5006072;28;89088;-70
2023/11/04 06:14:28;;;;;;;;;;;;;;;;;;5013787;28;90490;-73
2023/11/04 06:16:53;;;;;;;;;;;;;;;;;;5011490;28;89788;-69
2023/11/04 06:19:19;;;;;;;;;;;;;;;;;;5011508;28;89368;-70
2023/11/04 06:21:45;;;;;;;;;;;;;;;;;;5012812;28;89058;-71
2023/11/04 06:24:11;;;;;;;;;;;;;;;;;;5009206;28;89693;-70
2023/11/04 06:26:36;;;;;;;;;;;;;;;;;;5007667;28;89457;-71
2023/11/04 06:29:01;;;;;;;;;;;;;;;;;;5007689;28;89758;-70
2023/11/04 06:31:26;;;;;;;;;;;;;;;;;;5007095;28;89108;-71
2023/11/04 06:33:52;;;;;;;;;;;;;;;;;;5005375;28;89190;-72
2023/11/04 06:36:17;;;;;;;;;;;;;;;;;;5006913;28;89711;-70
2023/11/04 06:38:42;;;;;;;;;;;;;;;;;;5001772;28;89557;-71
2023/11/04 06:41:16;;;;;;;;;;;;;;;;;;5003297;28;89970;-71
2023/11/04 06:43:44;;;;;;;;;;;;;;;;;;5001524;28;89620;-69
2023/11/04 06:46:10;;;;;;;;;;;;;;;;;;5004620;28;89379;-69
2023/11/04 06:48:35;;;;;;;;;;;;;;;;;;5003571;28;91263;-69
2023/11/04 06:51:01;;;;;;;;;;;;;;;;;;5002295;28;90902;-70
2023/11/04 06:53:26;;;;;;;;;;;;;;;;;;5006721;28;91211;-67
2023/11/04 06:55:52;;;;;;;;;;;;;;;;;;5035101;27;89997;-69
2023/11/04 06:58:17;;;;;;;;;;;;;;;;;;5001728;28;90643;-65
2023/11/04 07:00:42;;;;;;;;;;;;;;;;;;5006769;28;89103;-64
2023/11/04 07:03:07;;;;;;;;;;;;;;;;;;5001496;28;89507;-66
2023/11/04 07:05:34;;;;;;;;;;;;;;;;;;5007012;28;89660;-67
2023/11/04 07:08:00;;;;;;;;;;;;;;;;;;5005780;28;89117;-65
2023/11/04 07:10:26;;;;;;;;;;;;;;;;;;5002819;28;89448;-67
2023/11/04 07:12:51;;;;;;;;;;;;;;;;;;5033729;27;92024;-66
2023/11/04 07:15:16;;;;;;;;;;;;;;;;;;5005860;28;90025;-63
2023/11/04 07:17:41;;;;;;;;;;;;;;;;;;5007104;28;89549;-65
2023/11/04 07:20:09;;;;;;;;;;;;;;;;;;5007805;28;89637;-64
2023/11/04 07:22:35;;;;;;;;;;;;;;;;;;5003923;28;89371;-64
2023/11/04 07:25:00;;;;;;;;;;;;;;;;;;5001998;28;90070;-63
2023/11/04 07:27:25;;;;;;;;;;;;;;;;;;5001052;28;90451;-62
2023/11/04 07:29:50;;;;;;;;;;;;;;;;;;5002799;28;90049;-64
2023/11/04 07:32:16;;;;;;;;;;;;;;;;;;5005448;28;89534;-71
2023/11/04 07:34:41;;;;;;;;;;;;;;;;;;5005965;28;89550;-64
2023/11/04 07:37:06;;;;;;;;;;;;;;;;;;5000743;28;90630;-64
2023/11/04 07:39:31;;;;;;;;;;;;;;;;;;5003547;28;89829;-65
2023/11/04 07:41:57;;;;;;;;;;;;;;;;;;5005341;28;89225;-65
2023/11/04 07:44:22;;;;;;;;;;;;;;;;;;5005001;28;89732;-66
2023/11/04 07:46:47;;;;;;;;;;;;;;;;;;5004057;28;89044;-65
2023/11/04 07:49:12;;;;;;;;;;;;;;;;;;5003378;28;90086;-63
2023/11/04 07:51:38;;;;;;;;;;;;;;;;;;5003840;28;90160;-63
2023/11/04 07:54:03;;;;;;;;;;;;;;;;;;5003129;28;89141;-63
2023/11/04 07:56:28;;;;;;;;;;;;;;;;;;5002038;28;89545;-65
2023/11/04 07:58:54;;;;;;;;;;;;;;;;;;5001380;28;89568;-67
2023/11/04 08:01:19;;;;;;;;;;;;;;;;;;5006169;28;89228;-68
2023/11/04 08:03:45;;;;;;;;;;;;;;;;;;5000284;28;89520;-64
2023/11/04 08:06:10;;;;;;;;;;;;;;;;;;5001050;28;90028;-63
2023/11/04 08:08:35;;;;;;;;;;;;;;;;;;5001058;28;90128;-63
2023/11/04 08:11:01;;;;;;;;;;;;;;;;;;5002809;28;89727;-64
2023/11/04 08:13:26;;;;;;;;;;;;;;;;;;4999450;28;89850;-63
2023/11/04 08:15:51;;;;;;;;;;;;;;;;;;5004171;28;90560;-64
2023/11/04 08:18:17;;;;;;;;;;;;;;;;;;5006622;28;89793;-66
2023/11/04 08:20:42;;;;;;;;;;;;;;;;;;5001467;28;89094;-69
2023/11/04 08:23:07;;;;;;;;;;;;;;;;;;5007445;28;89624;-67
2023/11/04 08:25:33;;;;;;;;;;;;;;;;;;4998025;28;89672;-68
2023/11/04 08:27:58;;;;;;;;;;;;;;;;;;4995763;28;89544;-65
2023/11/04 08:30:23;;;;;;;;;;;;;;;;;;5004248;28;89604;-66
2023/11/04 08:32:49;;;;;;;;;;;;;;;;;;5038446;27;89427;-68
2023/11/04 08:35:14;;;;;;;;;;;;;;;;;;4999934;28;89654;-65
2023/11/04 08:37:42;;;;;;;;;;;;;;;;;;4998535;28;90898;-69
2023/11/04 08:40:08;;;;;;;;;;;;;;;;;;4998838;28;89265;-69
2023/11/04 08:42:33;;;;;;;;;;;;;;;;;;5006612;28;89530;-64
2023/11/04 08:44:59;;;;;;;;;;;;;;;;;;5001614;28;89663;-63
2023/11/04 08:47:24;;;;;;;;;;;;;;;;;;5001709;28;89471;-63
2023/11/04 08:49:49;;;;;;;;;;;;;;;;;;5002200;28;90620;-62
2023/11/04 08:52:15;;;;;;;;;;;;;;;;;;5032442;27;89398;-64
2023/11/04 08:54:40;;;;;;;;;;;;;;;;;;5002421;28;90711;-66
2023/11/04 08:57:06;;;;;;;;;;;;;;;;;;5004561;28;89998;-63
2023/11/04 08:59:31;;;;;;;;;;;;;;;;;;5003705;28;89788;-69
2023/11/04 09:01:56;;;;;;;;;;;;;;;;;;5001774;28;90158;-64
2023/11/04 09:04:22;;;;;;;;;;;;;;;;;;5000162;28;91215;-65
2023/11/04 09:06:47;;;;;;;;;;;;;;;;;;5003380;28;90090;-72
2023/11/04 09:09:12;;;;;;;;;;;;;;;;;;5033005;27;89194;-63
2023/11/04 09:11:38;;;;;;;;;;;;;;;;;;5003484;28;89403;-67
2023/11/04 09:14:04;;;;;;;;;;;;;;;;;;5000936;28;90951;-63
2023/11/04 09:16:31;;;;;;;;;;;;;;;;;;5005594;28;89102;-64
2023/11/04 09:18:57;;;;;;;;;;;;;;;;;;5002097;28;90260;-65
2023/11/04 09:21:22;;;;;;;;;;;;;;;;;;5002514;28;90684;-63
2023/11/04 09:23:47;;;;;;;;;;;;;;;;;;5002746;28;89993;-66
2023/11/04 09:26:13;;;;;;;;;;;;;;;;;;5037215;27;89408;-66
2023/11/04 09:28:38;;;;;;;;;;;;;;;;;;5009921;28;90683;-65
2023/11/04 09:31:04;;;;;;;;;;;;;;;;;;5009834;28;90217;-72
2023/11/04 09:33:31;;;;;;;;;;;;;;;;;;5001150;28;90995;-64
2023/11/04 09:35:56;;;;;;;;;;;;;;;;;;5005829;28;90134;-63
2023/11/04 09:38:21;;;;;;;;;;;;;;;;;;5006354;28;90225;-63
2023/11/04 09:40:47;;;;;;;;;;;;;;;;;;5004116;28;89606;-63
2023/11/04 09:43:12;;;;;;;;;;;;;;;;;;5008727;28;89543;-65
2023/11/04 09:45:38;;;;;;;;;;;;;;;;;;5007215;28;89056;-63
2023/11/04 09:48:03;;;;;;;;;;;;;;;;;;5007127;28;89651;-63
2023/11/04 09:50:28;;;;;;;;;;;;;;;;;;5009037;28;89282;-64
2023/11/04 09:52:58;;;;;;;;;;;;;;;;;;5005992;28;90760;-63
2023/11/04 09:55:26;;;;;;;;;;;;;;;;;;5006838;28;89129;-65
2023/11/04 09:57:51;;;;;;;;;;;;;;;;;;5004452;28;90612;-63
2023/11/04 10:00:18;;;;;;;;;;;;;;;;;;5007208;28;89519;-68
2023/11/04 10:02:44;;;;;;;;;;;;;;;;;;5006099;28;89482;-67
2023/11/04 10:05:09;;;;;;;;;;;;;;;;;;5004759;28;90017;-68
2023/11/04 10:07:36;;;;;;;;;;;;;;;;;;5003377;28;89531;-67
2023/11/04 10:10:03;;;;;;;;;;;;;;;;;;5010570;28;90324;-66
2023/11/04 10:12:29;;;;;;;;;;;;;;;;;;5002563;28;91465;-66
2023/11/04 10:14:54;;;;;;;;;;;;;;;;;;5005499;28;89697;-70
2023/11/04 10:17:19;;;;;;;;;;;;;;;;;;5006684;28;90269;-67
2023/11/04 10:19:45;;;;;;;;;;;;;;;;;;5007053;28;89485;-67
2023/11/04 10:22:12;;;;;;;;;;;;;;;;;;5006662;28;90492;-64
2023/11/04 10:24:37;;;;;;;;;;;;;;;;;;5005754;28;89267;-63
2023/11/04 10:27:03;;;;;;;;;;;;;;;;;;5001429;28;90090;-62
2023/11/04 10:29:29;;;;;;;;;;;;;;;;;;5004093;28;90386;-67
2023/11/04 10:31:56;;;;;;;;;;;;;;;;;;5006125;28;89345;-72
2023/11/04 10:34:25;;;;;;;;;;;;;;;;;;5006971;28;89577;-72
2023/11/04 10:36:51;;;;;;;;;;;;;;;;;;5004319;28;90304;-69
2023/11/04 10:39:20;;;;;;;;;;;;;;;;;;5006069;28;91557;-65
2023/11/04 10:41:53;;;;;;;;;;;;;;;;;;5005295;28;89442;-65
2023/11/04 10:44:21;;;;;;;;;;;;;;;;;;4998017;28;89506;-65
2023/11/04 10:46:59;;;;;;;;;;;;;;;;;;5007786;28;90292;-68
2023/11/04 10:49:41;;;;;;;;;;;;;;;;;;5004301;28;90273;-65
2023/11/04 10:52:13;;;;;;;;;;;;;;;;;;5011749;28;90224;-63
2023/11/04 10:54:49;;;;;;;;;;;;;;;;;;5006900;28;91040;-66
2023/11/04 10:57:33;;;;;;;;;;;;;;;;;;5008728;28;91064;-64
2023/11/04 11:00:03;;;;;;;;;;;;;;;;;;5038287;27;90780;-66
2023/11/04 11:02:30;;;;;;;;;;;;;;;;;;5004350;28;90035;-63
2023/11/04 11:04:57;;;;;;;;;;;;;;;;;;5002347;28;89843;-62
2023/11/04 11:07:22;;;;;;;;;;;;;;;;;;5006157;28;91199;-74
2023/11/04 11:09:47;;;;;;;;;;;;;;;;;;5002704;28;89866;-72
2023/11/04 11:12:16;;;;;;;;;;;;;;;;;;5004887;28;90061;-66
2023/11/04 11:14:42;;;;;;;;;;;;;;;;;;5003834;28;90741;-69
2023/11/04 11:17:07;;;;;;;;;;;;;;;;;;5008259;28;89843;-68
2023/11/04 11:19:33;;;;;;;;;;;;;;;;;;5003570;28;91055;-63
2023/11/04 11:21:59;;;;;;;;;;;;;;;;;;5000942;28;89365;-65
2023/11/04 11:24:25;;;;;;;;;;;;;;;;;;4997927;28;90285;-64
2023/11/04 11:26:57;;;;;;;;;;;;;;;;;;5006182;28;89844;-64
2023/11/04 11:29:23;;;;;;;;;;;;;;;;;;5004851;28;89581;-63
2023/11/04 11:31:53;;;;;;;;;;;;;;;;;;5007291;27;89902;-66
2023/11/04 11:34:19;;;;;;;;;;;;;;;;;;5004680;28;89458;-64
2023/11/04 11:36:45;;;;;;;;;;;;;;;;;;5007321;28;90715;-68
2023/11/04 11:39:10;;;;;;;;;;;;;;;;;;5012823;28;89891;-68
2023/11/04 11:41:37;;;;;;;;;;;;;;;;;;5006165;28;90404;-65
2023/11/04 11:44:02;;;;;;;;;;;;;;;;;;5007001;28;89169;-66
2023/11/04 11:46:29;;;;;;;;;;;;;;;;;;4997064;28;89954;-65
2023/11/04 11:48:55;;;;;;;;;;;;;;;;;;5003392;28;90854;-69
2023/11/04 11:51:21;;;;;;;;;;;;;;;;;;5003126;28;89658;-66
2023/11/04 11:53:47;;;;;;;;;;;;;;;;;;5005397;28;90256;-68
2023/11/04 11:56:13;;;;;;;;;;;;;;;;;;5005092;28;90172;-63
2023/11/04 11:58:38;;;;;;;;;;;;;;;;;;5004737;28;89702;-67
2023/11/04 12:01:05;;;;;;;;;;;;;;;;;;5005769;28;90457;-63
2023/11/04 12:03:30;;;;;;;;;;;;;;;;;;5004809;28;89031;-64
2023/11/04 12:05:56;;;;;;;;;;;;;;;;;;4999266;28;89761;-64
2023/11/04 12:08:21;;;;;;;;;;;;;;;;;;5002149;28;90662;-63
2023/11/04 12:10:46;;;;;;;;;;;;;;;;;;5003631;28;89469;-64
2023/11/04 12:13:13;;;;;;;;;;;;;;;;;;5002309;28;92529;-71
2023/11/04 12:15:38;;;;;;;;;;;;;;;;;;5000720;27;90222;-63
2023/11/04 12:18:06;;;;;;;;;;;;;;;;;;5031367;27;89750;-75
2023/11/04 12:20:32;;;;;;;;;;;;;;;;;;5013121;28;90688;-67
2023/11/04 12:22:57;;;;;;;;;;;;;;;;;;5004406;28;89548;-67
2023/11/04 12:25:23;;;;;;;;;;;;;;;;;;5000763;28;90477;-69
2023/11/04 12:27:48;;;;;;;;;;;;;;;;;;5004238;28;90857;-68
2023/11/04 12:30:17;;;;;;;;;;;;;;;;;;5000976;28;92219;-70
2023/11/04 12:32:45;;;;;;;;;;;;;;;;;;5034913;27;95127;-64
2023/11/04 12:35:10;;;;;;;;;;;;;;;;;;5001032;28;90466;-64
2023/11/04 12:37:36;;;;;;;;;;;;;;;;;;5001441;28;90195;-63
2023/11/04 12:40:01;;;;;;;;;;;;;;;;;;5002579;28;89686;-63
2023/11/04 12:42:27;;;;;;;;;;;;;;;;;;4998912;28;94078;-63
2023/11/04 12:44:52;;;;;;;;;;;;;;;;;;5002056;28;92849;-67
2023/11/04 12:47:24;;;;;;;;;;;;;;;;;;5000161;28;89478;-63
2023/11/04 12:49:49;;;;;;;;;;;;;;;;;;5002439;28;90021;-66
2023/11/04 12:52:15;;;;;;;;;;;;;;;;;;5004856;28;90207;-67
2023/11/04 12:54:46;;;;;;;;;;;;;;;;;;5002299;28;90729;-64
2023/11/04 12:57:12;;;;;;;;;;;;;;;;;;5002264;28;89538;-65
2023/11/04 12:59:37;;;;;;;;;;;;;;;;;;5004541;28;89515;-67
2023/11/04 13:02:02;;;;;;;;;;;;;;;;;;5007104;28;89592;-65
2023/11/04 13:04:28;;;;;;;;;;;;;;;;;;5005920;28;89138;-64
2023/11/04 13:06:55;;;;;;;;;;;;;;;;;;5006459;28;91268;-63
2023/11/04 13:09:20;;;;;;;;;;;;;;;;;;5001542;28;89771;-65
2023/11/04 13:11:46;;;;;;;;;;;;;;;;;;5002566;28;91822;-64
2023/11/04 13:14:11;;;;;;;;;;;;;;;;;;5004731;28;90477;-63
2023/11/04 13:16:37;;;;;;;;;;;;;;;;;;4998433;28;89468;-66
2023/11/04 13:19:02;;;;;;;;;;;;;;;;;;5003139;28;90577;-64
2023/11/04 13:21:27;;;;;;;;;;;;;;;;;;5000927;28;89335;-64
2023/11/04 13:23:53;;;;;;;;;;;;;;;;;;5006770;28;89458;-63
2023/11/04 13:26:18;;;;;;;;;;;;;;;;;;5007180;28;89209;-65
2023/11/04 13:28:44;;;;;;;;;;;;;;;;;;5000264;28;89052;-67
2023/11/04 13:31:09;;;;;;;;;;;;;;;;;;5007639;28;90001;-63
2023/11/04 13:33:34;;;;;;;;;;;;;;;;;;5003541;28;90152;-69
2023/11/04 13:36:00;;;;;;;;;;;;;;;;;;5008338;28;89939;-66
2023/11/04 13:38:25;;;;;;;;;;;;;;;;;;4999945;28;89980;-65
2023/11/04 13:40:50;;;;;;;;;;;;;;;;;;5004906;28;90064;-63
2023/11/04 13:43:16;;;;;;;;;;;;;;;;;;5002504;28;90957;-63
2023/11/04 13:45:41;;;;;;;;;;;;;;;;;;5004151;28;89703;-63
2023/11/04 13:48:06;;;;;;;;;;;;;;;;;;5008490;28;90159;-63
2023/11/04 13:50:31;;;;;;;;;;;;;;;;;;5003072;28;90662;-63
2023/11/04 13:52:58;;;;;;;;;;;;;;;;;;5004506;28;90384;-66
2023/11/04 13:55:24;;;;;;;;;;;;;;;;;;5003118;28;89932;-66
2023/11/04 13:57:49;;;;;;;;;;;;;;;;;;5001465;28;90579;-63
2023/11/04 14:00:14;;;;;;;;;;;;;;;;;;5001288;28;90674;-68
2023/11/04 14:02:41;;;;;;;;;;;;;;;;;;5007822;28;89086;-65
2023/11/04 14:05:07;;;;;;;;;;;;;;;;;;5003701;28;89496;-64
2023/11/04 14:07:32;;;;;;;;;;;;;;;;;;5004115;28;90160;-68
2023/11/04 14:09:57;;;;;;;;;;;;;;;;;;5004207;28;90019;-65
2023/11/04 14:12:23;;;;;;;;;;;;;;;;;;5003886;28;90298;-63
2023/11/04 14:14:48;;;;;;;;;;;;;;;;;;5011741;28;89529;-63
2023/11/04 14:17:13;;;;;;;;;;;;;;;;;;5002865;28;90576;-63
2023/11/04 14:19:39;;;;;;;;;;;;;;;;;;5009110;28;89476;-64
2023/11/04 14:22:04;;;;;;;;;;;;;;;;;;5006799;28;89677;-66
2023/11/04 14:24:29;;;;;;;;;;;;;;;;;;5008406;27;89417;-70
2023/11/04 14:27:07;;;;;;;;;;;;;;;;;;2766165;27;10001090;-63
2023/11/04 14:29:35;;;;;;;;;;;;;;;;;;1230793;27;10001061;-66
2023/11/04 14:32:02;;;;;;;;;;;;;;;;;;1837593;27;10001075;-63
2023/11/04 14:34:27;;;;;;;;;;;;;;;;;;4996314;27;89213;-64
2023/11/04 14:36:53;;;;;;;;;;;;;;;;;;4984596;28;90185;-65
2023/11/04 14:39:18;;;;;;;;;;;;;;;;;;4982804;28;89674;-65
2023/11/04 14:41:44;;;;;;;;;;;;;;;;;;4978684;28;90739;-63
2023/11/04 14:44:10;;;;;;;;;;;;;;;;;;4983491;28;90111;-63
2023/11/04 14:46:37;;;;;;;;;;;;;;;;;;4982422;28;90433;-63
2023/11/04 14:49:02;;;;;;;;;;;;;;;;;;4981164;28;89389;-63
2023/11/04 14:51:28;;;;;;;;;;;;;;;;;;4983536;28;92022;-65
2023/11/04 14:53:53;;;;;;;;;;;;;;;;;;4991221;28;89605;-71
2023/11/04 14:56:18;;;;;;;;;;;;;;;;;;4980729;28;90142;-64
2023/11/04 14:58:44;;;;;;;;;;;;;;;;;;4986369;28;90498;-63
2023/11/04 15:01:09;;;;;;;;;;;;;;;;;;4980164;28;90745;-69
2023/11/04 15:03:37;;;;;;;;;;;;;;;;;;4989530;28;89578;-65
2023/11/04 15:06:02;;;;;;;;;;;;;;;;;;4987808;28;89086;-72
2023/11/04 15:08:27;;;;;;;;;;;;;;;;;;4103804;27;10001050;-68
2023/11/04 15:10:53;;;;;;;;;;;;;;;;;;3238362;27;10000511;-64
2023/11/04 15:13:30;;;;;;;;;;;;;;;;;;2770681;27;10001065;-65
2023/11/04 15:15:56;;;;;;;;;;;;;;;;;;1503704;27;10001084;-67
2023/11/04 15:18:22;;;;;;;;;;;;;;;;;;4995557;28;89197;-65
2023/11/04 15:20:48;;;;;;;;;;;;;;;;;;4990285;28;89886;-62
2023/11/04 15:23:13;;;;;;;;;;;;;;;;;;4991315;28;89938;-66
2023/11/04 15:25:39;;;;;;;;;;;;;;;;;;4982683;28;89539;-63
2023/11/04 15:28:05;;;;;;;;;;;;;;;;;;4991697;28;89331;-64
2023/11/04 15:30:30;;;;;;;;;;;;;;;;;;4990000;28;89445;-65
2023/11/04 15:32:56;;;;;;;;;;;;;;;;;;4993302;28;90101;-65
2023/11/04 15:35:21;;;;;;;;;;;;;;;;;;4988998;28;89339;-68
2023/11/04 15:37:46;;;;;;;;;;;;;;;;;;4985884;28;90004;-65
2023/11/04 15:40:12;;;;;;;;;;;;;;;;;;4984100;28;89853;-63
2023/11/04 15:42:37;;;;;;;;;;;;;;;;;;4985198;28;89570;-65
2023/11/04 15:45:04;;;;;;;;;;;;;;;;;;4987542;28;90076;-63
2023/11/04 15:47:29;;;;;;;;;;;;;;;;;;4987800;28;90658;-64
2023/11/04 15:49:54;;;;;;;;;;;;;;;;;;4984401;28;90377;-64
2023/11/04 15:52:20;;;;;;;;;;;;;;;;;;4983831;28;90208;-65
2023/11/04 15:54:45;;;;;;;;;;;;;;;;;;4981835;28;90062;-66
2023/11/04 15:57:11;;;;;;;;;;;;;;;;;;4982721;28;90584;-66
2023/11/04 15:59:37;;;;;;;;;;;;;;;;;;4985453;28;90780;-62
2023/11/04 16:02:03;;;;;;;;;;;;;;;;;;4984948;28;89429;-65
2023/11/04 16:04:29;;;;;;;;;;;;;;;;;;4979397;28;89464;-70
2023/11/04 16:06:54;;;;;;;;;;;;;;;;;;4987916;28;90192;-69
2023/11/04 16:09:20;;;;;;;;;;;;;;;;;;4988639;28;89655;-63
2023/11/04 16:11:45;;;;;;;;;;;;;;;;;;4985954;28;90547;-68
2023/11/04 16:14:12;;;;;;;;;;;;;;;;;;4993210;28;90676;-69
2023/11/04 16:16:38;;;;;;;;;;;;;;;;;;4991737;28;90183;-68
2023/11/04 16:19:03;;;;;;;;;;;;;;;;;;4992761;28;92221;-67
2023/11/04 16:21:28;;;;;;;;;;;;;;;;;;4993710;28;89487;-71
2023/11/04 16:23:53;;;;;;;;;;;;;;;;;;4993459;28;91050;-76
2023/11/04 16:26:18;;;;;;;;;;;;;;;;;;4986331;28;89617;-67
2023/11/04 16:28:44;;;;;;;;;;;;;;;;;;4996026;28;89456;-62
2023/11/04 16:31:18;;;;;;;;;;;;;;;;;;4984937;28;90057;-71
2023/11/04 16:33:43;;;;;;;;;;;;;;;;;;4995206;28;89426;-65